Time;durP1;ratioP1;P1;durP2;ratioP2;P2;SDS_P1;SDS_P2;PMS_P1;PMS_P2;Temp;Humidity;BMP_temperature;BMP_pressure;BME280_temperature;BME280_humidity;BME280_pressure;Samples;Min_cycle;Max_cycle;Signal;HPM_P1;HPM_P2
2022/12/10 00:01:58;;;;;;;11.95;2.90;;;;;;;-1.15;96.65;100663.22;10457352;28;20033;-83
2022/12/10 00:07:00;;;;;;;8.13;4.40;;;;;;;-1.14;96.65;100658.97;10436613;28;20041;-81
2022/12/10 00:12:01;;;;;;;1.73;1.63;;;;;;;-1.16;96.72;100647.72;10436461;28;20049;-79
2022/12/10 00:17:03;;;;;;;3.95;3.25;;;;;;;-1.14;96.74;100658.97;10453941;28;20052;-81
2022/12/10 00:22:11;;;;;;;1.13;1.05;;;;;;;-1.16;96.90;100666.56;10458828;28;20055;-83
2022/12/10 00:27:14;;;;;;;1.35;1.25;;;;;;;-1.17;97.04;100669.06;10471195;28;20037;-80
2022/12/10 00:32:15;;;;;;;4.88;3.38;;;;;;;-1.14;97.07;100670.16;10474691;28;20064;-83
2022/12/10 00:37:17;;;;;;;2.60;1.92;;;;;;;-1.13;97.11;100671.03;10482583;28;20036;-84
2022/12/10 00:42:18;;;;;;;2.67;2.15;;;;;;;-1.14;97.24;100671.81;10450956;28;20040;-80
2022/12/10 00:47:20;;;;;;;3.63;2.58;;;;;;;-1.20;96.99;100671.44;10481820;28;20524;-80
2022/12/10 00:52:25;;;;;;;2.28;1.35;;;;;;;-1.27;97.17;100678.75;10451184;28;20051;-81
2022/12/10 00:57:27;;;;;;;4.70;3.05;;;;;;;-1.26;97.18;100671.97;10448745;28;20040;-79
2022/12/10 01:02:29;;;;;;;6.03;3.63;;;;;;;-1.29;97.15;100674.31;10426136;28;20044;-80
2022/12/10 01:07:31;;;;;;;1.38;1.27;;;;;;;-1.31;97.36;100678.47;10458768;28;20079;-80
2022/12/10 01:12:33;;;;;;;2.13;1.80;;;;;;;-1.34;96.98;100681.72;10459321;28;20055;-84
2022/12/10 01:17:35;;;;;;;2.00;1.83;;;;;;;-1.43;96.88;100688.84;10440470;28;20044;-80
2022/12/10 01:22:37;;;;;;;1.75;1.58;;;;;;;-1.45;96.83;100693.03;10460317;28;20193;-83
2022/12/10 01:27:39;;;;;;;0.77;0.77;;;;;;;-1.46;97.17;100698.94;10449134;28;20041;-83
2022/12/10 01:32:41;;;;;;;2.35;2.15;;;;;;;-1.44;97.07;100694.81;10459487;28;20052;-84
2022/12/10 01:37:43;;;;;;;2.17;1.98;;;;;;;-1.51;97.03;100698.66;10441782;28;20045;-79
2022/12/10 01:42:44;;;;;;;2.42;1.90;;;;;;;-1.56;96.89;100707.75;10458910;28;20083;-80
2022/12/10 01:47:49;;;;;;;1.58;1.35;;;;;;;-1.57;96.75;100713.66;10468644;28;20048;-83
2022/12/10 01:52:52;;;;;;;1.30;1.08;;;;;;;-1.56;96.81;100722.25;10483537;28;20123;-82
2022/12/10 01:57:54;;;;;;;2.10;1.92;;;;;;;-1.58;96.94;100722.16;10450323;28;20143;-81
2022/12/10 02:03:04;;;;;;;1.75;1.60;;;;;;;-1.55;96.78;100721.47;10469571;28;20512;-83
2022/12/10 02:08:10;;;;;;;2.67;1.80;;;;;;;-1.53;97.05;100725.94;10466860;28;20060;-82
2022/12/10 02:13:22;;;;;;;1.75;1.58;;;;;;;-1.51;96.98;100726.03;10457194;28;20049;-84
2022/12/10 02:18:31;;;;;;;2.67;2.03;;;;;;;-1.50;97.08;100726.13;10451778;28;20043;-85
2022/12/10 02:23:41;;;;;;;2.08;1.95;;;;;;;-1.50;96.84;100735.47;10461928;28;20056;-80
2022/12/10 02:28:54;;;;;;;3.45;2.42;;;;;;;-1.43;96.93;100724.81;10442629;28;20043;-80
2022/12/10 02:33:59;;;;;;;3.22;2.95;;;;;;;-1.41;96.85;100728.41;10443028;28;20139;-81
2022/12/10 02:39:03;;;;;;;2.72;0.77;;;;;;;-1.38;96.58;100725.13;10473557;28;20777;-81
2022/12/10 02:44:10;;;;;;;5.40;3.00;;;;;;;-1.36;97.00;100721.84;10444440;28;20051;-84
2022/12/10 02:49:14;;;;;;;2.25;1.58;;;;;;;-1.38;96.81;100731.16;10443898;28;20080;-85
2022/12/10 02:54:37;;;;;;;3.38;2.80;;;;;;;-1.36;96.74;100732.13;10459933;28;20067;-83
2022/12/10 03:00:01;;;;;;;4.10;1.75;;;;;;;-1.33;96.76;100727.19;10429434;28;20131;-80
2022/12/10 03:05:15;;;;;;;1.58;1.40;;;;;;;-1.32;96.43;100731.53;10462244;28;20110;-80
2022/12/10 03:10:26;;;;;;;3.70;3.22;;;;;;;-1.33;96.22;100723.75;10465734;28;20041;-79
2022/12/10 03:15:32;;;;;;;10.15;3.00;;;;;;;-1.34;96.05;100722.84;10467180;28;20124;-83
2022/12/10 03:20:39;;;;;;;3.13;2.45;;;;;;;-1.32;96.21;100721.28;10438180;28;20056;-80
2022/12/10 03:25:41;;;;;;;2.47;2.03;;;;;;;-1.35;95.93;100728.78;10460555;28;20041;-81
2022/12/10 03:30:43;;;;;;;2.78;2.35;;;;;;;-1.40;95.58;100726.69;10464880;28;20047;-82
2022/12/10 03:35:46;;;;;;;5.82;2.58;;;;;;;-1.40;95.36;100719.00;10435395;28;20076;-81
2022/12/10 03:40:48;;;;;;;3.53;2.28;;;;;;;-1.47;94.96;100712.56;10481882;28;20060;-80
2022/12/10 03:45:50;;;;;;;1.80;1.60;;;;;;;-1.55;94.90;100713.75;10467395;28;20233;-81
2022/12/10 03:50:52;;;;;;;2.35;2.15;;;;;;;-1.64;94.76;100702.09;10441653;28;20075;-81
2022/12/10 03:55:54;;;;;;;2.47;1.70;;;;;;;-1.74;94.51;100699.75;10450634;28;20055;-81
2022/12/10 04:00:56;;;;;;;5.10;2.53;;;;;;;-1.76;94.27;100710.69;10474189;28;20048;-80
2022/12/10 04:06:07;;;;;;;2.17;1.80;;;;;;;-1.84;94.44;100711.06;10456657;28;20674;-81
2022/12/10 04:11:11;;;;;;;3.33;2.88;;;;;;;-1.91;94.19;100714.03;10450329;28;20048;-81
2022/12/10 04:16:28;;;;;;;1.30;1.13;;;;;;;-2.03;94.00;100711.53;10422063;28;20044;-81
2022/12/10 04:26:55;;;;;;;2.38;2.20;;;;;;;-2.22;93.70;100718.78;10445011;28;20045;-82
2022/12/10 04:31:58;;;;;;;2.00;1.83;;;;;;;-2.35;93.75;100719.66;10430270;28;20090;-80
2022/12/10 04:37:01;;;;;;;2.15;1.90;;;;;;;-2.44;93.76;100722.47;10470628;28;20048;-78
2022/12/10 04:42:04;;;;;;;2.58;1.83;;;;;;;-2.54;93.76;100720.06;10450523;28;20063;-79
2022/12/10 04:47:09;;;;;;;1.67;1.48;;;;;;;-2.63;93.67;100716.88;10469052;28;20485;-78
2022/12/10 04:52:13;;;;;;;2.22;2.03;;;;;;;-2.73;93.80;100723.03;10453603;28;20052;-80
2022/12/10 04:57:15;;;;;;;2.75;2.47;;;;;;;-2.82;93.81;100718.19;10469271;28;20454;-81
2022/12/10 05:02:17;;;;;;;0.68;0.68;;;;;;;-2.97;93.65;100722.22;10477632;28;20064;-79
2022/12/10 05:07:18;;;;;;;2.80;2.55;;;;;;;-2.99;93.64;100724.66;10477071;28;20055;-80
2022/12/10 05:12:20;;;;;;;2.80;2.55;;;;;;;-3.06;93.96;100723.38;10478020;28;20056;-81
2022/12/10 05:17:21;;;;;;;2.53;2.30;;;;;;;-3.06;93.97;100717.34;10455036;28;20107;-78
2022/12/10 05:27:44;;;;;;;;;;;;;;;-3.21;93.67;100706.91;10467513;28;20048;-78
2022/12/10 05:32:46;;;;;;;2.97;2.60;;;;;;;-3.25;93.96;100717.72;10467070;28;19931;-78
2022/12/10 05:37:47;;;;;;;1.75;1.65;;;;;;;-3.31;93.92;100712.16;10450135;28;20055;-81
2022/12/10 05:42:49;;;;;;;3.10;2.80;;;;;;;-3.40;93.92;100720.94;10475712;28;20048;-79
2022/12/10 05:47:51;;;;;;;2.03;1.90;;;;;;;-3.43;93.72;100733.53;10448624;28;20044;-78
2022/12/10 05:52:52;;;;;;;4.70;2.72;;;;;;;-3.37;93.86;100741.66;10458829;28;20127;-82
2022/12/10 05:57:55;;;;;;;3.00;2.70;;;;;;;-3.35;93.97;100743.44;10459332;28;20139;-80
2022/12/10 06:02:56;;;;;;;1.45;1.35;;;;;;;-3.41;93.86;100749.00;10465284;28;20049;-78
2022/12/10 06:07:58;;;;;;;2.35;1.77;;;;;;;-3.43;94.13;100755.69;10457511;28;20792;-79
2022/12/10 06:13:00;;;;;;;3.80;3.15;;;;;;;-3.44;94.11;100754.81;10465414;28;20048;-80
2022/12/10 06:18:01;;;;;;;2.67;2.17;;;;;;;-3.37;94.21;100764.69;10431877;28;20075;-79
2022/12/10 06:23:03;;;;;;;2.20;2.03;;;;;;;-3.31;94.18;100769.38;10439768;28;20053;-79
2022/12/10 06:28:06;;;;;;;1.30;1.20;;;;;;;-3.27;94.49;100773.94;10432806;28;20099;-79
2022/12/10 06:33:08;;;;;;;4.28;2.70;;;;;;;-3.33;94.73;100770.03;10453648;28;20130;-78
2022/12/10 06:38:09;;;;;;;4.28;2.40;;;;;;;-3.35;94.47;100777.59;10435506;28;20138;-80
2022/12/10 06:43:11;;;;;;;1.73;1.60;;;;;;;-3.32;94.45;100779.50;10471036;28;20061;-80
2022/12/10 06:48:13;;;;;;;3.35;2.13;;;;;;;-3.32;94.54;100776.94;10449501;28;20048;-78
2022/12/10 06:53:15;;;;;;;2.72;2.30;;;;;;;-3.31;94.55;100791.56;10461708;28;20053;-78
2022/12/10 06:58:16;;;;;;;1.65;1.55;;;;;;;-3.25;94.69;100787.75;10463090;28;20037;-79
2022/12/10 07:03:18;;;;;;;3.15;2.63;;;;;;;-3.18;94.62;100794.22;10450014;28;20101;-82
2022/12/10 07:08:20;;;;;;;2.47;2.22;;;;;;;-3.14;94.87;100800.44;10465061;28;20379;-79
2022/12/10 07:13:23;;;;;;;1.90;1.33;;;;;;;-3.10;94.68;100808.47;10456286;28;20037;-79
2022/12/10 07:18:31;;;;;;;1.73;1.63;;;;;;;-3.04;94.77;100816.56;10429874;28;20040;-80
2022/12/10 07:23:32;;;;;;;2.78;2.58;;;;;;;-3.02;94.92;100817.59;10440044;28;20231;-78
2022/12/10 07:28:34;;;;;;;0.90;0.90;;;;;;;-2.96;95.19;100819.69;10453429;28;20036;-81
2022/12/10 07:33:48;;;;;;;1.80;1.27;;;;;;;-2.92;94.93;100819.13;10455188;28;20064;-78
2022/12/10 07:38:51;;;;;;;2.05;1.85;;;;;;;-2.88;94.90;100822.81;10429570;28;20598;-82
2022/12/10 07:43:53;;;;;;;2.92;2.15;;;;;;;-2.78;95.07;100819.22;10462337;28;20664;-82
2022/12/10 07:48:55;;;;;;;2.35;2.15;;;;;;;-2.67;95.06;100826.91;10445443;28;20285;-79
2022/12/10 07:53:56;;;;;;;7.55;3.17;;;;;;;-2.59;95.20;100831.69;10463725;28;20084;-79
2022/12/10 07:58:58;;;;;;;1.65;1.50;;;;;;;-2.50;95.28;100827.19;10456266;28;20083;-81
2022/12/10 08:04:00;;;;;;;1.83;1.67;;;;;;;-2.39;95.62;100828.81;10468742;28;20048;-81
2022/12/10 08:09:02;;;;;;;0.80;0.77;;;;;;;-2.27;95.49;100835.59;10479865;28;20040;-77
2022/12/10 08:14:03;;;;;;;1.90;1.65;;;;;;;-2.18;95.62;100828.53;10469917;28;20048;-76
2022/12/10 08:19:05;;;;;;;3.08;2.00;;;;;;;-2.11;95.64;100833.31;10462999;28;20460;-77
2022/12/10 08:24:07;;;;;;;3.42;2.72;;;;;;;-2.02;95.73;100851.91;10461516;28;20528;-77
2022/12/10 08:29:08;;;;;;;3.20;1.98;;;;;;;-1.99;95.66;100852.09;10463835;28;20072;-77
2022/12/10 08:34:13;;;;;;;1.67;1.52;;;;;;;-1.90;95.44;100856.09;10459043;28;20055;-78
2022/12/10 08:39:16;;;;;;;4.28;2.38;;;;;;;-1.87;95.69;100853.75;10473351;28;20492;-78
2022/12/10 08:44:17;;;;;;;3.75;3.10;;;;;;;-1.82;95.65;100860.06;10477572;28;20049;-78
2022/12/10 08:49:19;;;;;;;2.10;1.85;;;;;;;-1.73;95.62;100864.94;10476983;28;20072;-76
2022/12/10 08:54:21;;;;;;;1.98;1.77;;;;;;;-1.76;95.54;100852.78;10437180;28;20045;-78
2022/12/10 08:59:22;;;;;;;3.45;2.38;;;;;;;-1.71;95.56;100853.09;10451416;28;20492;-79
2022/12/10 09:04:24;;;;;;;3.03;1.38;;;;;;;-1.60;95.24;100858.16;10422507;28;20084;-78
2022/12/10 09:09:25;;;;;;;2.85;2.58;;;;;;;-1.54;95.65;100861.94;10459223;28;20044;-77
2022/12/10 09:14:27;;;;;;;1.30;1.20;;;;;;;-1.44;95.59;100869.47;10454320;28;20076;-78
2022/12/10 09:19:28;;;;;;;1.23;1.13;;;;;;;-1.39;95.27;100867.22;10408025;28;20045;-81
2022/12/10 09:24:30;;;;;;;2.33;2.13;;;;;;;-1.33;95.39;100888.16;10450264;28;20049;-78
2022/12/10 09:29:32;;;;;;;2.67;2.28;;;;;;;-1.27;95.55;100886.88;10440314;28;20041;-79
2022/12/10 09:34:33;;;;;;;2.40;1.67;;;;;;;-1.19;95.38;100886.50;10455563;28;20040;-80
2022/12/10 09:39:35;;;;;;;1.38;0.80;;;;;;;-1.18;95.24;100889.16;10437410;28;20137;-79
2022/12/10 09:45:01;;;;;;;2.58;1.95;;;;;;;-1.06;95.03;100891.66;10445157;28;20048;-81
2022/12/10 09:50:21;;;;;;;4.13;2.38;;;;;;;-0.97;95.12;100884.53;10433913;22;20054;-77
2022/12/10 09:55:44;;;;;;;4.10;2.17;;;;;;;-0.94;94.69;100887.31;10420021;28;20098;-76
2022/12/10 10:00:51;;;;;;;1.63;1.45;;;;;;;-0.90;94.58;100898.69;10438833;28;20036;-76
2022/12/10 10:05:54;;;;;;;2.38;2.17;;;;;;;-0.85;94.68;100886.13;10442801;28;20083;-77
2022/12/10 10:10:56;;;;;;;1.17;1.15;;;;;;;-0.76;94.51;100890.16;10436850;28;20053;-77
2022/12/10 10:16:28;;;;;;;1.58;1.40;;;;;;;-0.74;93.98;100887.69;10433468;28;20037;-78
2022/12/10 10:21:44;;;;;;;3.83;2.97;;;;;;;-0.76;93.79;100897.88;10431001;28;20771;-77
2022/12/10 10:26:45;;;;;;;2.10;1.33;;;;;;;-0.77;93.68;100897.78;10428032;28;20060;-76
2022/12/10 10:32:07;;;;;;;1.73;1.63;;;;;;;-0.72;93.18;100906.72;10418343;28;20415;-77
2022/12/10 10:37:19;;;;;;;3.50;2.63;;;;;;;-0.67;92.91;100905.31;10424609;28;20052;-78
2022/12/10 10:42:38;;;;;;;5.85;1.27;;;;;;;-0.58;92.99;100908.47;10437952;28;20098;-79
2022/12/10 10:47:39;;;;;;;1.50;1.25;;;;;;;-0.38;92.93;100903.69;10429193;28;20115;-79
2022/12/10 10:52:41;;;;;;;4.90;3.80;;;;;;;-0.39;92.23;100899.31;10423942;28;20042;-79
2022/12/10 10:57:43;;;;;;;1.67;1.40;;;;;;;-0.23;92.18;100909.78;10416011;28;20041;-78
2022/12/10 11:02:45;;;;;;;6.35;3.88;;;;;;;-0.27;92.19;100896.63;10423770;28;20041;-79
2022/12/10 11:07:47;;;;;;;6.25;4.18;;;;;;;-0.26;91.86;100893.28;10433085;28;20153;-79
2022/12/10 11:13:03;;;;;;;2.88;2.30;;;;;;;-0.11;91.48;100896.78;10433307;28;20483;-81
2022/12/10 11:18:37;;;;;;;2.38;2.20;;;;;;;-0.11;91.26;100888.19;10402860;28;20050;-80
2022/12/10 11:23:52;;;;;;;2.38;1.80;;;;;;;-0.04;90.77;100886.09;10398382;28;20461;-79
2022/12/10 11:29:19;;;;;;;1.10;0.98;;;;;;;-0.04;90.44;100877.47;10435032;28;20056;-78
2022/12/10 11:34:39;;;;;;;4.63;2.83;;;;;;;-0.15;89.73;100879.41;10416805;28;20092;-78
2022/12/10 11:40:02;;;;;;;1.20;1.10;;;;;;;-0.07;90.08;100885.03;10410208;28;20136;-78
2022/12/10 11:45:15;;;;;;;0.80;0.77;;;;;;;-0.04;89.35;100886.09;10416041;28;20037;-78
2022/12/10 11:50:42;;;;;;;2.58;1.67;;;;;;;-0.09;89.48;100892.66;10424224;28;20056;-77
2022/12/10 11:56:17;;;;;;;2.25;2.05;;;;;;;0.01;89.17;100878.63;10429888;28;20505;-79
2022/12/10 12:01:28;;;;;;;5.35;2.38;;;;;;;-0.07;88.85;100887.59;10390164;28;20867;-78
2022/12/10 12:06:34;;;;;;;3.90;2.25;;;;;;;-0.01;88.79;100895.69;10391867;28;20466;-77
2022/12/10 12:11:55;;;;;;;5.10;3.13;;;;;;;-0.07;88.34;100882.44;10398867;28;20083;-77
2022/12/10 12:17:27;;;;;;;2.78;2.17;;;;;;;-0.09;88.33;100876.28;10438357;28;20037;-79
2022/12/10 12:22:44;;;;;;;2.10;1.90;;;;;;;-0.02;88.18;100858.75;10411098;28;20080;-78
2022/12/10 12:27:53;;;;;;;3.22;2.17;;;;;;;0.05;87.75;100865.16;10431573;28;20049;-78
2022/12/10 12:32:59;;;;;;;2.53;1.92;;;;;;;0.06;87.71;100866.94;10422403;28;20051;-77
2022/12/10 12:38:14;;;;;;;2.25;2.03;;;;;;;0.15;87.48;100867.50;10417816;28;20048;-77
2022/12/10 12:43:22;;;;;;;0.95;0.75;;;;;;;0.17;86.95;100876.19;10421054;28;20998;-77
2022/12/10 12:48:48;;;;;;;4.90;2.22;;;;;;;0.10;86.88;100883.47;10424954;28;20719;-78
2022/12/10 12:53:49;;;;;;;2.97;1.70;;;;;;;0.03;86.77;100881.31;10408007;28;20063;-78
2022/12/10 12:59:05;;;;;;;3.20;2.58;;;;;;;0.07;86.55;100881.59;10436843;28;20045;-77
2022/12/10 13:04:07;;;;;;;3.50;2.88;;;;;;;-0.02;86.03;100888.75;10429192;28;20049;-77
2022/12/10 13:09:14;;;;;;;3.08;2.33;;;;;;;0.04;85.85;100888.25;10427884;28;20547;-78
2022/12/10 13:14:30;;;;;;;3.58;1.92;;;;;;;0.03;85.65;100892.53;10428586;28;20122;-76
2022/12/10 13:19:33;;;;;;;1.55;1.27;;;;;;;-0.01;85.73;100893.13;10418045;28;20046;-78
2022/12/10 13:24:34;;;;;;;1.27;1.17;;;;;;;0.01;85.61;100899.25;10414136;28;20052;-78
2022/12/10 13:29:51;;;;;;;2.25;1.70;;;;;;;0.07;86.04;100894.47;10429454;28;20048;-78
2022/12/10 13:35:15;;;;;;;6.07;2.40;;;;;;;0.09;86.29;100892.88;10440571;28;20045;-78
2022/12/10 13:40:29;;;;;;;4.35;3.00;;;;;;;0.15;85.97;100907.78;10433190;28;20045;-76
2022/12/10 13:45:34;;;;;;;3.30;1.80;;;;;;;0.09;86.00;100910.00;10442686;28;20045;-76
2022/12/10 13:50:41;;;;;;;3.40;2.33;;;;;;;0.05;86.27;100911.50;10440421;28;20052;-77
2022/12/10 13:56:00;;;;;;;2.70;2.45;;;;;;;0.04;86.39;100914.00;10425270;28;20053;-77
2022/12/10 14:01:15;;;;;;;3.13;1.63;;;;;;;-0.06;86.03;100933.13;10425536;28;20041;-77
2022/12/10 14:06:22;;;;;;;7.15;3.28;;;;;;;-0.10;86.12;100926.91;10440608;28;20048;-77
2022/12/10 14:11:36;;;;;;;1.05;0.93;;;;;;;-0.22;86.64;100929.59;10440417;28;20508;-77
2022/12/10 14:16:40;;;;;;;1.70;1.58;;;;;;;-0.21;86.93;100939.09;10441368;28;20048;-77
2022/12/10 14:21:46;;;;;;;2.42;2.22;;;;;;;-0.20;87.01;100927.13;10433031;28;20524;-77
2022/12/10 14:26:55;;;;;;;6.03;2.75;;;;;;;-0.22;86.40;100931.28;10426157;28;20178;-77
2022/12/10 14:31:57;;;;;;;3.47;1.48;;;;;;;-0.21;86.97;100939.09;10431186;28;20112;-78
2022/12/10 14:37:03;;;;;;;5.35;2.92;;;;;;;-0.20;86.80;100935.72;10421268;28;20045;-78
2022/12/10 15:38:29;;;;;;;0.45;0.43;;;;;;;-0.44;86.48;100934.19;10534882;28;20044;-77
2022/12/10 15:43:31;;;;;;;2.38;1.98;;;;;;;-0.52;86.62;100937.97;10552021;28;20039;-77
2022/12/10 15:48:32;;;;;;;1.63;1.42;;;;;;;-0.52;86.69;100949.13;10543662;28;20852;-77
2022/12/10 15:53:38;;;;;;;0.98;0.90;;;;;;;-0.52;86.79;100955.97;10543345;28;20040;-78
2022/12/10 15:58:41;;;;;;;1.08;0.98;;;;;;;-0.55;86.75;100944.66;10524199;28;20032;-79
2022/12/10 16:03:42;;;;;;;0.38;0.38;;;;;;;-0.52;86.88;100950.81;10525494;28;20546;-77
2022/12/10 16:08:44;;;;;;;1.33;1.23;;;;;;;-0.59;86.89;100947.81;10509251;28;20040;-75
2022/12/10 16:13:51;;;;;;;1.38;1.02;;;;;;;-0.55;87.00;100952.38;10505709;28;20115;-78
2022/12/10 16:18:52;;;;;;;1.15;0.73;;;;;;;-0.51;86.79;100955.16;10488564;28;20044;-78
2022/12/10 16:23:54;;;;;;;2.58;1.80;;;;;;;-0.58;87.36;100949.63;10510037;28;20040;-77
2022/12/10 16:28:55;;;;;;;1.20;1.10;;;;;;;-0.49;87.01;100961.31;10499730;28;20052;-78
2022/12/10 16:33:57;;;;;;;2.10;1.77;;;;;;;-0.50;86.71;100949.22;10510103;28;20032;-76
2022/12/10 16:38:59;;;;;;;0.80;0.80;;;;;;;-0.55;86.68;100957.53;10489126;28;20052;-76
2022/12/10 16:44:01;;;;;;;1.48;1.38;;;;;;;-0.59;86.92;100960.69;10510058;28;20050;-77
2022/12/10 16:49:03;;;;;;;3.58;2.42;;;;;;;-0.55;87.10;100959.22;10492781;28;20052;-75
2022/12/10 16:54:04;;;;;;;3.20;2.25;;;;;;;-0.58;86.50;100956.47;10490074;28;20047;-76
2022/12/10 16:59:06;;;;;;;2.97;1.67;;;;;;;-0.64;86.91;100944.09;10518780;28;20055;-76
2022/12/10 17:04:09;;;;;;;1.08;0.93;;;;;;;-0.65;86.49;100949.13;10502054;28;20595;-77
2022/12/10 17:09:10;;;;;;;0.90;0.65;;;;;;;-0.65;86.96;100956.84;10524878;28;20068;-77
2022/12/10 17:14:24;;;;;;;2.45;1.77;;;;;;;-0.66;87.00;100968.81;10515659;28;20036;-76
2022/12/10 17:19:30;;;;;;;3.15;2.65;;;;;;;-0.65;86.68;100959.41;10515981;28;20032;-75
2022/12/10 17:24:32;;;;;;;2.83;2.00;;;;;;;-0.61;86.92;100967.44;10489389;28;20044;-76
2022/12/10 17:29:40;;;;;;;1.23;1.13;;;;;;;-0.64;86.75;100969.81;10523046;28;20047;-76
2022/12/10 17:34:41;;;;;;;1.92;1.27;;;;;;;-0.63;86.96;100963.88;10505517;28;20040;-76
2022/12/10 17:39:44;;;;;;;2.85;1.80;;;;;;;-0.64;87.22;100972.38;10521984;28;20133;-76
2022/12/10 17:44:45;;;;;;;2.17;1.88;;;;;;;-0.68;86.56;100980.66;10488721;28;20040;-77
2022/12/10 17:49:47;;;;;;;3.92;1.92;;;;;;;-0.66;86.77;100973.06;10514178;28;20520;-77
2022/12/10 17:54:49;;;;;;;11.35;2.13;;;;;;;-0.67;86.84;100977.31;10522185;28;20423;-77
2022/12/10 17:59:50;;;;;;;1.15;1.05;;;;;;;-0.69;86.76;100983.16;10523159;28;20040;-75
2022/12/10 18:04:52;;;;;;;3.97;3.10;;;;;;;-0.72;86.83;100984.75;10505346;28;20036;-76
2022/12/10 18:09:53;;;;;;;4.28;2.05;;;;;;;-0.75;86.72;100984.53;10506773;28;20059;-76
2022/12/10 18:14:55;;;;;;;6.07;2.92;;;;;;;-0.73;86.84;100982.06;10520008;28;20028;-76
2022/12/10 18:19:56;;;;;;;1.83;1.55;;;;;;;-0.74;87.01;100999.16;10506148;28;20566;-75
2022/12/10 18:24:58;;;;;;;3.65;1.70;;;;;;;-0.77;87.25;101000.66;10480456;28;20060;-76
2022/12/10 18:29:59;;;;;;;2.50;1.77;;;;;;;-0.74;87.18;100994.00;10486824;28;20561;-75
2022/12/10 18:35:01;;;;;;;5.32;1.98;;;;;;;-0.77;87.25;100987.78;10465677;28;20043;-77
2022/12/10 18:40:04;;;;;;;6.65;3.08;;;;;;;-0.66;87.39;100998.78;10504005;28;20735;-77
2022/12/10 18:45:06;;;;;;;2.58;1.60;;;;;;;-0.69;87.04;100994.34;10480121;28;20036;-76
2022/12/10 18:50:19;;;;;;;1.50;1.40;;;;;;;-0.71;87.06;101003.63;10496403;28;20547;-77
2022/12/10 18:55:23;;;;;;;4.05;3.10;;;;;;;-0.72;87.04;100996.72;10513731;28;20484;-76
2022/12/10 19:00:26;;;;;;;1.65;1.27;;;;;;;-0.76;86.94;100993.03;10502013;28;20044;-76
2022/12/10 19:05:28;;;;;;;3.60;1.92;;;;;;;-0.74;86.92;100999.16;10508277;28;20043;-77
2022/12/10 19:10:30;;;;;;;4.13;3.15;;;;;;;-0.74;87.08;101004.31;10484262;28;20838;-76
2022/12/10 19:15:33;;;;;;;2.20;1.70;;;;;;;-0.78;86.74;100988.56;10511246;28;20036;-75
2022/12/10 19:20:41;;;;;;;2.55;1.55;;;;;;;-0.78;86.82;100997.19;10519497;28;20131;-75
2022/12/10 19:25:43;;;;;;;3.30;2.05;;;;;;;-0.76;87.00;100993.03;10504960;28;20078;-75
2022/12/10 19:30:45;;;;;;;3.80;1.20;;;;;;;-0.73;86.85;100997.50;10518406;28;20045;-74
2022/12/10 19:35:46;;;;;;;2.83;1.85;;;;;;;-0.80;86.84;100988.47;10520449;28;20063;-75
2022/12/10 19:40:50;;;;;;;0.50;0.50;;;;;;;-0.84;86.90;100983.03;10511483;28;20047;-75
2022/12/10 19:45:52;;;;;;;1.92;1.60;;;;;;;-0.84;87.15;100983.94;10523653;28;20032;-75
2022/12/10 19:50:53;;;;;;;3.42;1.65;;;;;;;-0.83;86.61;100987.38;10519993;28;20044;-77
2022/12/10 19:55:55;;;;;;;0.63;0.57;;;;;;;-0.82;86.88;100995.19;10510119;28;20036;-75
2022/12/10 20:00:56;;;;;;;1.88;1.08;;;;;;;-0.88;86.85;100992.22;10528336;28;20043;-75
2022/12/10 20:05:58;;;;;;;2.72;2.13;;;;;;;-0.84;87.08;100998.44;10526122;28;20702;-77
2022/12/10 20:11:00;;;;;;;4.60;1.60;;;;;;;-0.84;86.90;101001.94;10525087;28;20071;-75
2022/12/10 20:16:01;;;;;;;3.33;2.47;;;;;;;-0.84;86.87;101004.50;10514998;28;20044;-76
2022/12/10 20:21:03;;;;;;;2.83;2.05;;;;;;;-0.88;87.25;101004.22;10518506;28;20126;-75
2022/12/10 20:26:15;;;;;;;3.03;1.75;;;;;;;-0.85;87.43;101001.84;10510475;28;20036;-75
2022/12/10 20:31:16;;;;;;;4.40;3.65;;;;;;;-0.83;87.27;101005.38;10524636;28;20101;-75
2022/12/10 20:36:22;;;;;;;3.25;2.95;;;;;;;-0.85;87.41;101004.41;10522918;28;20039;-76
2022/12/10 20:41:24;;;;;;;4.18;2.05;;;;;;;-0.87;87.26;101018.81;10524368;28;20050;-77
2022/12/10 20:46:32;;;;;;;3.90;3.13;;;;;;;-0.94;87.46;101008.13;10499657;28;20486;-75
2022/12/10 20:51:34;;;;;;;1.27;1.17;;;;;;;-0.97;87.79;101007.06;10510282;28;20090;-75
2022/12/10 20:56:35;;;;;;;1.60;1.33;;;;;;;-0.95;87.69;101011.47;10499808;28;20047;-75
2022/12/10 21:01:37;;;;;;;5.93;3.28;;;;;;;-1.00;88.22;101007.72;10500579;28;20505;-75
2022/12/10 21:06:42;;;;;;;3.38;2.13;;;;;;;-0.98;87.49;101010.41;10523608;28;20060;-76
2022/12/10 21:11:44;;;;;;;3.70;3.22;;;;;;;-0.99;87.90;101004.38;10519479;28;20126;-76
2022/12/10 21:16:45;;;;;;;1.92;1.77;;;;;;;-0.97;87.79;101013.06;10517509;28;20519;-75
2022/12/10 21:21:47;;;;;;;3.95;3.25;;;;;;;-0.96;87.72;101008.81;10513701;28;20040;-76
2022/12/10 21:26:48;;;;;;;0.90;0.90;;;;;;;-0.93;88.03;101003.88;10514726;28;20051;-75
2022/12/10 21:31:50;;;;;;;2.92;2.13;;;;;;;-0.96;87.75;101012.28;10518196;28;20046;-75
2022/12/10 21:36:52;;;;;;;1.45;1.35;;;;;;;-0.94;87.88;101008.13;10523218;28;20098;-76
2022/12/10 21:47:13;;;;;;;1.40;1.30;;;;;;;-0.91;87.82;100995.47;10519100;28;20182;-76
2022/12/10 21:52:14;;;;;;;1.33;0.95;;;;;;;-0.90;88.13;100994.69;10495403;28;20084;-77
2022/12/10 21:57:16;;;;;;;1.45;1.30;;;;;;;-0.94;87.85;101000.41;10514793;28;20035;-76
2022/12/10 22:02:18;;;;;;;1.52;1.40;;;;;;;-0.95;87.68;101005.47;10517650;28;20578;-76
2022/12/10 22:07:19;;;;;;;2.28;1.90;;;;;;;-0.97;87.88;100999.34;10509700;28;20063;-75
2022/12/10 22:12:21;;;;;;;1.92;1.50;;;;;;;-0.96;88.07;101003.66;10520118;28;20028;-77
2022/12/10 22:17:23;;;;;;;3.58;2.88;;;;;;;-0.99;87.63;101004.38;10508714;28;20451;-77
2022/12/10 22:22:24;;;;;;;2.20;1.95;;;;;;;-1.03;87.65;100997.25;10493092;28;20028;-76
2022/12/10 22:27:31;;;;;;;3.22;2.40;;;;;;;-1.04;87.83;100995.44;10502866;28;20051;-76
2022/12/10 22:32:33;;;;;;;5.05;2.55;;;;;;;-1.01;87.59;101005.06;10514438;28;20315;-76
2022/12/10 22:37:35;;;;;;;2.72;2.50;;;;;;;-0.99;87.69;100994.09;10517721;28;20067;-76
2022/12/10 22:42:37;;;;;;;2.03;1.42;;;;;;;-1.00;88.27;101002.59;10501169;28;20044;-75
2022/12/10 22:47:38;;;;;;;1.70;1.25;;;;;;;-0.99;87.93;101006.03;10498366;28;20603;-76
2022/12/10 22:52:40;;;;;;;1.88;1.50;;;;;;;-1.01;88.04;101002.47;10519169;28;20051;-76
2022/12/10 22:57:41;;;;;;;1.73;1.27;;;;;;;-0.97;88.08;100997.66;10513648;28;20047;-73
2022/12/10 23:02:43;;;;;;;3.63;1.23;;;;;;;-1.00;88.22;100997.44;10512688;28;20052;-75
2022/12/10 23:07:44;;;;;;;0.57;0.55;;;;;;;-0.98;88.18;101011.28;10518423;28;20098;-75
2022/12/10 23:18:08;;;;;;;1.83;1.73;;;;;;;-1.02;87.87;100993.88;10514492;28;20055;-74
2022/12/10 23:23:09;;;;;;;2.55;2.33;;;;;;;-1.00;88.11;100994.88;10527837;28;20052;-74
2022/12/10 23:28:12;;;;;;;2.55;1.50;;;;;;;-1.03;88.12;100986.97;10528964;28;20070;-75
2022/12/10 23:33:13;;;;;;;3.38;1.63;;;;;;;-1.05;88.17;100993.69;10521223;28;20044;-75
2022/12/10 23:38:14;;;;;;;2.55;1.65;;;;;;;-1.02;87.96;100988.75;10529338;28;20052;-74
2022/12/10 23:43:16;;;;;;;1.95;1.42;;;;;;;-1.03;88.30;100989.53;10519781;28;20040;-75
2022/12/10 23:48:18;;;;;;;1.30;1.20;;;;;;;-0.99;87.90;100988.03;10520918;28;20048;-75
2022/12/10 23:53:19;;;;;;;6.13;2.35;;;;;;;-1.03;87.90;100993.78;10510225;28;20040;-75
2022/12/10 23:58:21;;;;;;;1.52;1.42;;;;;;;-0.95;87.99;100990.91;10529181;28;20092;-76
